.
WxDataArchive / Data Records for 2014-07-30
2014-07-29 July 2014 2014-07-31

Data Records for Wednesday, 30 July 2014

Time	Temp	Chill	HIndex	Humid	Dewpt	 Wind 	HiWind	WindDir	Rain 	Barom
-----	----	-----	------	-----	-----	------	------	-------	-----	-----
00:00	60.7	60.7	60.7	92	58.4	0	0	---	0.00	29.975 
00:05	60.7	60.7	60.7	92	58.4	0	0	---	0.00	29.975 
00:10	60.5	60.5	60.5	92	58.2	0	0	---	0.00	29.975 
00:15	60.4	60.4	60.4	92	58.1	0	0	---	0.00	29.971 
00:20	60.2	60.2	60.2	92	57.9	0	0	---	0.00	29.971 
00:25	60.1	60.1	60.1	92	57.8	0	0	---	0.00	29.971 
00:30	59.9	59.9	59.9	92	57.6	0	0	---	0.00	29.972 
00:35	59.9	59.9	59.9	93	57.9	0	0	---	0.00	29.972 
00:40	59.8	59.8	59.8	93	57.8	0	0	---	0.00	29.972 
00:45	59.8	59.8	59.8	93	57.8	0	0	---	0.00	29.974 
00:50	59.8	59.8	59.8	93	57.8	0	0	---	0.00	29.974 
00:55	59.8	59.8	59.8	93	57.8	0	0	---	0.00	29.974 
01:00	59.8	59.8	59.8	93	57.8	0	1	270	0.00	29.973 
01:05	59.8	59.8	59.8	93	57.8	0	0	---	0.00	29.973 
01:10	59.6	59.6	59.6	93	57.6	0	0	---	0.00	29.973 
01:15	59.6	59.6	59.6	93	57.6	0	0	---	0.00	29.966 
01:20	59.5	59.5	59.5	93	57.5	0	0	---	0.00	29.966 
01:25	59.5	59.5	59.5	93	57.5	0	0	---	0.00	29.966 
01:30	59.3	59.3	59.3	93	57.3	0	0	---	0.00	29.966 
01:35	59.3	59.3	59.3	93	57.3	0	0	---	0.00	29.966 
01:40	59.3	59.3	59.3	93	57.3	0	0	---	0.00	29.966 
01:45	59.3	59.3	59.3	93	57.3	0	0	---	0.00	29.968 
01:50	59.3	59.3	59.3	93	57.3	0	0	---	0.00	29.968 
01:55	59.2	59.2	59.2	93	57.2	0	0	---	0.00	29.968 
02:00	59.2	59.2	59.2	93	57.2	0	0	---	0.00	29.970 
02:05	59.2	59.2	59.2	93	57.2	0	0	---	0.00	29.970 
02:10	59.2	59.2	59.2	93	57.2	0	0	---	0.00	29.970 
02:15	59.2	59.2	59.2	93	57.2	0	0	---	0.00	29.965 
02:20	59.2	59.2	59.2	94	57.5	0	0	---	0.00	29.965 
02:25	59.2	59.2	59.2	94	57.5	0	0	---	0.00	29.965 
02:30	59.2	59.2	59.2	94	57.5	0	0	---	0.00	29.963 
02:35	59.2	59.2	59.2	94	57.5	0	0	---	0.00	29.963 
02:40	59.2	59.2	59.2	94	57.5	0	0	---	0.00	29.963 
02:45	59.2	59.2	59.2	94	57.5	0	0	---	0.00	29.961 
02:50	59.2	59.2	59.2	94	57.5	0	0	---	0.00	29.961 
02:55	59.2	59.2	59.2	94	57.5	0	0	---	0.00	29.961 
03:00	59.2	59.2	59.2	94	57.5	0	0	---	0.00	29.961 
03:05	59.2	59.2	59.2	94	57.5	0	2	270	0.00	29.961 
03:10	59.3	59.3	59.3	94	57.6	0	1	270	0.00	29.961 
03:15	59.3	59.3	59.3	94	57.6	0	0	---	0.00	29.961 
03:20	59.5	59.5	59.5	94	57.8	0	1	270	0.00	29.961 
03:25	59.5	59.5	59.5	94	57.8	0	1	270	0.00	29.961 
03:30	59.6	59.6	59.6	94	57.9	0	0	---	0.00	29.961 
03:35	59.6	59.6	59.6	94	57.9	0	1	270	0.00	29.961 
03:40	59.6	59.6	59.6	94	57.9	0	0	---	0.00	29.961 
03:45	59.6	59.6	59.6	94	57.9	0	0	---	0.00	29.959 
03:50	59.5	59.5	59.5	94	57.8	0	0	---	0.00	29.959 
03:55	59.5	59.5	59.5	94	57.8	0	1	270	0.00	29.959 
04:00	59.3	59.3	59.3	94	57.6	0	0	---	0.00	29.957 
04:05	59.2	59.2	59.2	94	57.5	0	0	---	0.00	29.957 
04:10	59.2	59.2	59.2	94	57.5	0	0	---	0.00	29.957 
04:15	59.2	59.2	59.2	94	57.5	0	0	---	0.00	29.964 
04:20	59.2	59.2	59.2	94	57.5	0	0	---	0.00	29.964 
04:25	59.0	59.0	59.0	94	57.3	0	0	---	0.00	29.964 
04:30	59.0	59.0	59.0	94	57.3	0	0	---	0.00	29.959 
04:35	59.2	59.2	59.2	94	57.5	0	0	---	0.00	29.959 
04:40	59.2	59.2	59.2	94	57.5	0	0	---	0.00	29.959 
04:45	59.3	59.3	59.3	94	57.6	0	0	---	0.00	29.962 
04:50	59.3	59.3	59.3	94	57.6	0	0	---	0.00	29.962 
04:55	59.3	59.3	59.3	94	57.6	0	0	---	0.00	29.962 
05:00	59.5	59.5	59.5	94	57.8	0	0	---	0.00	29.962 
05:05	59.5	59.5	59.5	94	57.8	0	0	---	0.00	29.962 
05:10	59.6	59.6	59.6	94	57.9	0	1	270	0.00	29.962 
05:15	59.6	59.6	59.6	94	57.9	0	0	---	0.00	29.965 
05:20	59.6	59.6	59.6	94	57.9	0	0	---	0.00	29.965 
05:25	59.6	59.6	59.6	94	57.9	0	0	---	0.00	29.965 
05:30	59.6	59.6	59.6	94	57.9	0	1	270	0.00	29.962 
05:35	59.6	59.6	59.6	94	57.9	0	0	---	0.00	29.962 
05:40	59.6	59.6	59.6	94	57.9	0	0	---	0.00	29.962 
05:45	59.6	59.6	59.6	94	57.9	0	0	---	0.00	29.966 
05:50	59.6	59.6	59.6	94	57.9	0	0	---	0.00	29.966 
05:55	59.6	59.6	59.6	94	57.9	0	0	---	0.00	29.966 
06:00	59.6	59.6	59.6	94	57.9	0	0	---	0.00	29.968 
06:05	59.6	59.6	59.6	94	57.9	0	1	270	0.00	29.968 
06:10	59.6	59.6	59.6	94	57.9	0	1	270	0.00	29.968 
06:15	59.6	59.6	59.6	94	57.9	0	0	---	0.00	29.969 
06:20	59.6	59.6	59.6	94	57.9	0	1	270	0.00	29.969 
06:25	59.6	59.6	59.6	94	57.9	0	0	---	0.00	29.969 
06:30	59.6	59.6	59.6	94	57.9	0	0	---	0.00	29.970 
06:35	59.6	59.6	59.6	94	57.9	0	0	---	0.00	29.970 
06:40	59.6	59.6	59.6	94	57.9	0	0	---	0.00	29.970 
06:45	59.6	59.6	59.6	94	57.9	0	0	---	0.00	29.971 
06:50	59.6	59.6	59.6	94	57.9	0	0	---	0.00	29.971 
06:55	59.6	59.6	59.6	94	57.9	0	0	---	0.00	29.971 
07:00	59.6	59.6	59.6	94	57.9	0	0	---	0.00	29.975 
07:05	59.6	59.6	59.6	94	57.9	0	0	---	0.00	29.975 
07:10	59.6	59.6	59.6	94	57.9	0	0	---	0.00	29.975 
07:15	59.6	59.6	59.6	93	57.6	0	0	---	0.00	29.980 
07:20	59.6	59.6	59.6	93	57.6	0	0	---	0.00	29.980 
07:25	59.6	59.6	59.6	93	57.6	0	0	---	0.00	29.980 
07:30	59.6	59.6	59.6	93	57.6	0	0	---	0.00	29.981 
07:35	59.6	59.6	59.6	93	57.6	0	1	270	0.00	29.981 
07:40	59.6	59.6	59.6	93	57.6	0	1	270	0.00	29.981 
07:45	59.9	59.9	59.9	93	57.9	0	1	270	0.00	29.982 
07:50	60.1	60.1	60.1	93	58.1	0	2	270	0.00	29.982 
07:55	60.2	60.2	60.2	93	58.2	0	2	270	0.00	29.982 
08:00	60.4	60.4	60.4	92	58.1	0	2	270	0.00	29.982 
08:05	60.5	60.5	60.5	92	58.2	0	3	270	0.00	29.982 
08:10	60.9	60.9	60.9	92	58.6	1	3	270	0.00	29.982 
08:15	61.0	61.0	61.0	91	58.4	0	2	270	0.00	29.985 
08:20	61.3	61.3	61.3	91	58.6	0	1	270	0.00	29.985 
08:25	61.5	61.5	61.5	90	58.5	0	1	270	0.00	29.985 
08:30	61.6	61.6	61.6	89	58.3	0	2	270	0.00	29.987 
08:35	62.0	62.0	62.0	89	58.7	0	1	270	0.00	29.987 
08:40	62.3	62.3	62.3	88	58.7	0	1	270	0.00	29.987 
08:45	62.6	62.6	62.6	88	59.0	0	2	270	0.00	29.987 
08:50	62.9	62.9	62.9	86	58.6	0	2	270	0.00	29.987 
08:55	63.2	63.2	63.2	86	58.9	0	1	270	0.00	29.987 
09:00	63.7	63.7	63.7	85	59.1	0	2	270	0.00	29.985 
09:05	64.0	64.0	64.0	84	59.1	0	2	270	0.00	29.985 
09:10	64.2	64.2	64.2	81	58.2	1	3	270	0.00	29.985 
09:15	64.5	64.5	64.5	81	58.5	0	3	270	0.00	29.995 
09:20	64.8	64.8	64.8	80	58.5	1	4	270	0.00	29.995 
09:25	65.0	65.0	65.0	78	58.0	1	4	270	0.00	29.995 
09:30	65.3	65.3	65.3	77	57.9	1	4	270	0.00	29.996 
09:35	65.6	65.6	65.6	77	58.2	0	2	270	0.00	29.996 
09:40	66.0	66.0	66.0	76	58.2	1	3	270	0.00	29.996 
09:45	66.3	66.3	66.3	75	58.1	1	2	270	0.00	29.995 
09:50	66.4	66.4	66.4	75	58.2	2	4	270	0.00	29.995 
09:55	66.6	66.6	66.6	73	57.7	1	4	270	0.00	29.995 
10:00	66.9	66.9	66.9	73	58.0	1	2	270	0.00	29.995 
10:05	67.3	67.3	67.3	72	58.0	1	4	270	0.00	29.995 
10:10	67.6	67.6	67.6	72	58.2	1	3	270	0.00	29.995 
10:15	67.9	67.9	67.9	70	57.7	1	2	270	0.00	29.996 
10:20	68.3	68.3	68.3	70	58.1	1	3	270	0.00	29.996 
10:25	68.8	68.8	68.8	69	58.2	1	3	270	0.00	29.996 
10:30	68.9	68.9	68.9	66	57.1	1	3	270	0.00	29.995 
10:35	68.8	68.8	68.8	64	56.1	2	3	270	0.00	29.995 
10:40	68.4	68.4	68.4	66	56.6	1	3	270	0.00	29.995 
10:45	68.6	68.6	68.6	66	56.8	1	2	270	0.00	29.996 
10:50	68.4	68.4	68.4	65	56.2	1	3	292	0.00	29.996 
10:55	68.6	68.6	68.6	68	57.6	0	1	292	0.00	29.996 
11:00	68.9	68.9	68.9	68	57.9	0	1	292	0.00	30.002 
11:05	68.9	68.9	68.9	66	57.1	0	3	292	0.00	30.002 
11:10	68.8	68.8	68.8	64	56.1	1	2	292	0.00	30.002 
11:15	68.8	68.8	68.8	68	57.8	0	2	292	0.00	30.005 
11:20	68.9	68.9	68.9	66	57.1	1	2	292	0.00	30.005 
11:25	68.8	68.8	68.8	66	57.0	1	3	292	0.00	30.005 
11:30	68.9	68.9	68.9	66	57.1	1	2	292	0.00	30.009 
11:35	69.1	69.1	69.1	65	56.8	0	2	292	0.00	30.009 
11:40	69.3	69.3	69.3	66	57.4	0	1	292	0.00	30.009 
11:45	69.6	69.6	69.6	64	56.9	1	3	292	0.00	30.009 
11:50	69.6	69.6	69.6	64	56.9	0	2	292	0.00	30.009 
11:55	69.6	69.6	69.6	63	56.4	1	3	292	0.00	30.009 
12:00	69.8	69.8	69.8	64	57.1	1	3	292	0.00	30.009 
12:05	69.6	69.6	69.6	61	55.5	1	4	292	0.00	30.009 
12:10	69.4	69.4	69.4	62	55.8	2	3	292	0.00	30.009 
12:15	69.4	69.4	69.4	62	55.8	1	3	292	0.00	30.012 
12:20	69.4	69.4	69.4	64	56.7	1	3	292	0.00	30.012 
12:25	69.6	69.6	69.6	64	56.9	0	2	292	0.00	30.012 
12:30	69.6	69.6	69.6	62	56.0	1	3	292	0.00	30.011 
12:35	69.8	69.8	69.8	62	56.2	0	2	292	0.00	30.011 
12:40	70.1	70.1	70.1	63	56.9	0	3	292	0.00	30.011 
12:45	70.3	70.3	70.3	60	55.7	2	4	292	0.00	30.012 
12:50	70.8	70.8	70.8	58	55.3	2	4	292	0.00	30.012 
12:55	70.8	70.8	70.8	59	55.7	1	4	292	0.00	30.012 
13:00	70.9	70.9	70.9	60	56.3	1	5	292	0.00	30.010 
13:05	71.3	71.3	71.3	61	57.1	0	1	292	0.00	30.010 
13:10	71.6	71.6	71.6	59	56.5	0	2	292	0.00	30.010 
13:15	71.8	71.8	71.8	61	57.6	1	3	292	0.00	30.008 
13:20	71.8	71.8	71.8	60	57.2	0	1	292	0.00	30.008 
13:25	72.3	72.3	72.3	61	58.1	0	1	292	0.00	30.008 
13:30	72.5	72.5	72.5	60	57.8	0	2	292	0.00	29.999 
13:35	73.0	73.0	73.0	60	58.3	1	4	90	0.00	29.999 
13:40	73.2	73.2	73.2	60	58.5	1	2	90	0.00	29.999 
13:45	73.3	73.3	73.3	59	58.1	0	2	90	0.00	29.995 
13:50	73.5	73.5	73.5	57	57.3	0	2	90	0.00	29.995 
13:55	74.0	74.0	74.0	60	59.2	1	3	90	0.00	29.995 
14:00	74.2	74.2	74.2	51	54.9	2	5	270	0.00	29.994 
14:05	73.9	73.9	73.9	50	54.1	3	5	292	0.00	29.994 
14:10	73.9	73.9	73.9	52	55.1	2	5	315	0.00	29.994 
14:15	74.0	74.0	74.0	52	55.2	3	7	315	0.00	29.992 
14:20	74.6	74.6	74.6	53	56.3	1	5	338	0.00	29.992 
14:25	74.9	74.9	74.9	51	55.5	3	5	270	0.00	29.992 
14:30	74.7	74.7	74.7	49	54.3	2	5	270	0.00	29.988 
14:35	74.4	74.4	74.4	50	54.5	2	5	270	0.00	29.988 
14:40	74.2	74.2	74.2	54	56.5	2	4	270	0.00	29.988 
14:45	74.7	74.7	74.7	53	56.4	1	4	270	0.00	29.987 
14:50	75.4	75.4	77.8	51	56.0	2	4	270	0.00	29.987 
14:55	75.6	75.6	77.9	53	57.2	2	4	315	0.00	29.987 
15:00	76.0	76.0	78.1	52	57.1	2	5	270	0.00	29.979 
15:05	76.3	76.3	78.2	52	57.4	1	4	270	0.00	29.979 
15:10	76.5	76.5	78.2	46	54.2	2	5	270	0.00	29.979 
15:15	76.7	76.7	78.4	50	56.6	2	4	270	0.00	29.976 
15:20	76.1	76.1	78.1	49	55.5	2	5	270	0.00	29.976 
15:25	76.1	76.1	78.1	49	55.5	2	5	270	0.00	29.976 
15:30	76.8	76.8	78.5	49	56.2	2	6	292	0.00	29.975 
15:35	76.8	76.8	78.4	48	55.6	2	6	315	0.00	29.975 
15:40	76.8	76.8	78.4	47	55.0	3	5	270	0.00	29.975 
15:45	76.8	76.8	78.5	49	56.2	2	4	270	0.00	29.973 
15:50	76.8	76.8	78.5	50	56.7	1	4	270	0.00	29.973 
15:55	77.0	77.0	78.6	50	56.9	2	4	270	0.00	29.973 
16:00	76.8	76.8	78.5	49	56.2	2	4	270	0.00	29.969 
16:05	76.7	76.7	78.4	49	56.1	2	4	270	0.00	29.969 
16:10	76.8	76.8	78.4	48	55.6	2	6	315	0.00	29.969 
16:15	76.8	76.8	78.4	46	54.4	2	4	270	0.00	29.966 
16:20	77.0	77.0	78.6	49	56.4	1	4	270	0.00	29.966 
16:25	77.2	77.2	78.7	49	56.5	1	4	292	0.00	29.966 
16:30	77.7	77.7	78.9	48	56.4	1	4	270	0.00	29.963 
16:35	77.6	77.6	78.8	47	55.8	2	5	270	0.00	29.963 
16:40	77.7	77.7	78.9	47	55.8	2	4	270	0.00	29.963 
16:45	78.1	78.1	79.2	47	56.2	0	4	270	0.00	29.959 
16:50	78.1	78.1	79.2	47	56.2	2	6	270	0.00	29.959 
16:55	77.9	77.9	79.0	47	56.0	2	5	270	0.00	29.959 
17:00	77.7	77.7	78.9	47	55.8	2	5	270	0.00	29.959 
17:05	77.4	77.4	78.8	48	56.1	2	4	270	0.00	29.959 
17:10	77.2	77.2	78.7	49	56.5	2	6	292	0.00	29.959 
17:15	77.4	77.4	78.7	47	55.6	2	5	292	0.00	29.958 
17:20	77.6	77.6	78.8	47	55.8	1	4	292	0.00	29.958 
17:25	77.6	77.6	78.9	48	56.3	2	6	270	0.00	29.958 
17:30	77.0	77.0	78.6	49	56.4	2	3	270	0.00	29.958 
17:35	77.2	77.2	78.7	48	56.0	2	5	270	0.00	29.958 
17:40	77.0	77.0	78.6	49	56.4	2	7	292	0.00	29.958 
17:45	77.0	77.0	78.6	50	56.9	2	4	270	0.00	29.959 
17:50	76.7	76.7	78.4	49	56.1	2	4	292	0.00	29.959 
17:55	76.7	76.7	78.4	47	54.9	2	5	292	0.00	29.959 
18:00	76.5	76.5	78.3	49	55.9	2	7	292	0.00	29.959 
18:05	76.5	76.5	78.3	49	55.9	2	5	270	0.00	29.959 
18:10	76.5	76.5	78.3	49	55.9	2	5	270	0.00	29.959 
18:15	76.5	76.5	78.3	48	55.3	2	5	338	0.00	29.959 
18:20	76.5	76.5	78.3	50	56.5	2	5	315	0.00	29.959 
18:25	76.3	76.3	78.2	49	55.7	2	5	270	0.00	29.959 
18:30	76.3	76.3	78.2	49	55.7	2	5	270	0.00	29.956 
18:35	76.3	76.3	78.2	49	55.7	2	6	270	0.00	29.956 
18:40	76.1	76.1	78.1	49	55.5	3	6	270	0.00	29.956 
18:45	76.0	76.0	78.1	50	56.0	2	5	270	0.00	29.957 
18:50	76.1	76.1	78.1	51	56.6	1	4	270	0.00	29.957 
18:55	76.0	76.0	78.1	50	56.0	2	6	270	0.00	29.957 
19:00	75.8	75.8	78.0	51	56.4	2	5	315	0.00	29.960 
19:05	75.8	75.8	78.0	51	56.4	1	5	315	0.00	29.960 
19:10	75.6	75.6	77.9	51	56.2	1	3	315	0.00	29.960 
19:15	75.6	75.6	77.9	50	55.6	1	3	270	0.00	29.958 
19:20	75.4	75.4	77.8	50	55.4	1	3	292	0.00	29.958 
19:25	75.3	75.3	77.7	50	55.4	1	4	292	0.00	29.958 
19:30	75.3	75.3	77.7	51	55.9	1	4	292	0.00	29.960 
19:35	75.3	75.3	77.7	50	55.4	1	3	292	0.00	29.960 
19:40	75.1	75.1	77.7	50	55.2	1	3	292	0.00	29.960 
19:45	74.7	74.7	74.7	50	54.8	1	2	292	0.00	29.961 
19:50	74.7	74.7	74.7	50	54.8	1	3	292	0.00	29.961 
19:55	74.6	74.6	74.6	51	55.3	1	3	292	0.00	29.961 
20:00	74.4	74.4	74.4	50	54.5	1	4	292	0.00	29.961 
20:05	74.4	74.4	74.4	51	55.1	1	2	292	0.00	29.961 
20:10	74.2	74.2	74.2	51	54.9	0	1	292	0.00	29.961 
20:15	74.0	74.0	74.0	51	54.7	0	1	292	0.00	29.962 
20:20	73.7	73.7	73.7	52	55.0	0	2	292	0.00	29.962 
20:25	73.5	73.5	73.5	52	54.8	0	3	292	0.00	29.962 
20:30	73.5	73.5	73.5	51	54.2	0	1	292	0.00	29.961 
20:35	73.3	73.3	73.3	51	54.1	0	1	292	0.00	29.961 
20:40	73.2	73.2	73.2	52	54.5	0	1	292	0.00	29.961 
20:45	73.0	73.0	73.0	51	53.8	0	1	292	0.00	29.961 
20:50	72.8	72.8	72.8	52	54.1	0	1	292	0.00	29.961 
20:55	72.5	72.5	72.5	53	54.4	0	1	292	0.00	29.961 
21:00	72.1	72.1	72.1	54	54.5	0	0	---	0.00	29.970 
21:05	71.8	71.8	71.8	54	54.2	0	0	---	0.00	29.970 
21:10	71.6	71.6	71.6	56	55.1	0	0	---	0.00	29.970 
21:15	71.3	71.3	71.3	56	54.8	0	0	---	0.00	29.972 
21:20	71.1	71.1	71.1	56	54.6	0	0	---	0.00	29.972 
21:25	70.9	70.9	70.9	57	54.9	0	0	---	0.00	29.972 
21:30	70.6	70.6	70.6	58	55.1	0	0	---	0.00	29.973 
21:35	70.3	70.3	70.3	59	55.3	0	0	---	0.00	29.973 
21:40	69.9	69.9	69.9	59	54.9	0	0	---	0.00	29.973 
21:45	69.6	69.6	69.6	60	55.1	0	0	---	0.00	29.979 
21:50	69.3	69.3	69.3	61	55.3	0	0	---	0.00	29.979 
21:55	68.9	68.9	68.9	62	55.3	0	0	---	0.00	29.979 
22:00	68.6	68.6	68.6	62	55.0	0	0	---	0.00	29.983 
22:05	68.3	68.3	68.3	64	55.6	0	0	---	0.00	29.983 
22:10	67.9	67.9	67.9	64	55.3	0	0	---	0.00	29.983 
22:15	67.6	67.6	67.6	66	55.8	0	0	---	0.00	29.990 
22:20	67.3	67.3	67.3	66	55.5	0	0	---	0.00	29.990 
22:25	67.1	67.1	67.1	67	55.8	0	0	---	0.00	29.990 
22:30	66.8	66.8	66.8	68	55.9	0	0	---	0.00	29.992 
22:35	66.4	66.4	66.4	69	55.9	0	0	---	0.00	29.992 
22:40	66.3	66.3	66.3	70	56.2	0	0	---	0.00	29.992 
22:45	66.0	66.0	66.0	71	56.3	0	0	---	0.00	29.995 
22:50	65.8	65.8	65.8	72	56.5	0	0	---	0.00	29.995 
22:55	65.6	65.6	65.6	72	56.3	0	0	---	0.00	29.995 
23:00	65.5	65.5	65.5	73	56.6	0	0	---	0.00	29.994 
23:05	65.3	65.3	65.3	73	56.4	0	0	---	0.00	29.994 
23:10	65.2	65.2	65.2	74	56.7	0	0	---	0.00	29.994 
23:15	65.2	65.2	65.2	74	56.7	0	0	---	0.00	29.994 
23:20	65.2	65.2	65.2	74	56.7	0	0	---	0.00	29.994 
23:25	65.2	65.2	65.2	73	56.3	0	0	---	0.00	29.994 
23:30	65.0	65.0	65.0	73	56.1	0	0	---	0.00	29.995 
23:35	65.0	65.0	65.0	73	56.1	0	0	---	0.00	29.995 
23:40	64.8	64.8	64.8	74	56.3	0	0	---	0.00	29.995 
23:45	64.8	64.8	64.8	74	56.3	0	0	---	0.00	29.995 
23:50	64.8	64.8	64.8	75	56.7	0	0	---	0.00	29.995 
23:55	64.7	64.7	64.7	75	56.6	0	0	---	0.00	29.995 

CoCoRaHS
IN-AL-39
A2 Web Hosting
Creative Commons License
GoDaddy
search engine by freefind advanced

loaded 2018-11-22 05:49:08 • last modified 2010-11-18 10:43:29
Privacy PolicyDisclaimer
• wx.awcolley.com is powered by PmWiki v.2002016 •
• all content (unless otherwise noted) © 2018 A W Colley